YHLM weather

Hillman Farm Airport
Western Australia, Australia

Public forecast

Using degrees Celsius for public forecast. Weather courtesy of forecast.io.

Closest aviation weather report (METAR) to Hillman Farm Airport

Closest report is Perth Jandakot Airport, 84.5 nm (156.4 km) NW. Retrieved 2020/01/29 10:30 UTC (3 minutes ago):

YPJT 291030Z AUTO 25011KT 9999 // BKN029 BKN034 23/17 Q1007

Closest aviation forecast (TAF) to Hillman Farm Airport

Forecast is more than 6 hours old.

Closest forecast is Perth Jandakot Airport, 84.5 nm (156.4 km) NW. Retrieved 2020-01-29 00:00 UTC (11 hours ago):

TAF YPJT 282238Z 2900/2918 18008KT CAVOK FM290200 24012KT CAVOK FM291200 23008KT 9999 SCT025 FM291500 25008KT 9999 -SHRA SCT020 BKN030 INTER 2916/2918 4000 SHRA BKN012